createdAt,value
2022-09-04T00:04:53.698Z,8.9
2022-09-04T00:09:55.005Z,8.1
2022-09-04T00:14:55.752Z,10.4
2022-09-04T00:19:55.968Z,9.9
2022-09-04T00:24:56.857Z,11.4
2022-09-04T00:29:57.923Z,10.6
2022-09-04T00:34:58.859Z,11.9
2022-09-04T00:39:59.568Z,8.0
2022-09-04T00:45:00.366Z,8.8
2022-09-04T00:50:01.120Z,7.2
2022-09-04T00:55:02.242Z,8.2
2022-09-04T01:00:03.068Z,7.7
2022-09-04T01:05:03.814Z,9.9
2022-09-04T01:10:04.833Z,8.5
2022-09-04T01:15:05.637Z,8.3
2022-09-04T01:20:06.321Z,8.8
2022-09-04T01:25:07.065Z,10.8
2022-09-04T01:30:08.144Z,10.6
2022-09-04T01:35:08.997Z,14.2
2022-09-04T01:40:09.761Z,9.2
2022-09-04T01:45:10.683Z,8.4
2022-09-04T01:50:11.445Z,10.2
2022-09-04T01:55:12.293Z,9.8
2022-09-04T02:00:13.135Z,10.1
2022-09-04T02:05:14.021Z,9.0
2022-09-04T02:10:15.366Z,10.1
2022-09-04T02:15:15.712Z,10.2
2022-09-04T02:20:16.615Z,7.6
2022-09-04T02:25:17.466Z,8.4
2022-09-04T02:30:18.643Z,8.1
2022-09-04T02:35:19.079Z,6.8
2022-09-04T02:40:20.070Z,9.6
2022-09-04T02:45:23.260Z,10.6
2022-09-04T02:50:21.629Z,8.8
2022-09-04T02:55:23.219Z,10.0
2022-09-04T03:00:23.344Z,7.9
2022-09-04T03:05:24.156Z,9.0
2022-09-04T03:10:25.631Z,11.7
2022-09-04T03:15:25.991Z,9.3
2022-09-04T03:20:27.065Z,9.9
2022-09-04T03:25:27.676Z,11.2
2022-09-04T03:30:28.466Z,10.6
2022-09-04T03:35:29.448Z,12.6
2022-09-04T03:40:30.014Z,8.3
2022-09-04T03:45:31.180Z,12.9
2022-09-04T03:50:31.816Z,11.8
2022-09-04T03:55:32.736Z,8.4
2022-09-04T04:00:38.364Z,9.4
2022-09-04T04:05:34.254Z,11.4
2022-09-04T04:10:35.693Z,8.8
2022-09-04T04:15:36.008Z,10.5
2022-09-04T04:20:36.918Z,11.6
2022-09-04T04:25:37.994Z,9.0
2022-09-04T04:30:38.680Z,9.5
2022-09-04T04:35:39.349Z,12.4
2022-09-04T04:40:40.074Z,10.1
2022-09-04T04:45:41.254Z,10.8
2022-09-04T04:50:41.961Z,10.3
2022-09-04T04:55:42.701Z,8.2
2022-09-04T05:00:43.569Z,9.8
2022-09-04T05:05:44.768Z,8.0
2022-09-04T05:10:45.133Z,10.4
2022-09-04T05:16:07.509Z,7.6
2022-09-04T05:20:47.200Z,7.8
2022-09-04T05:25:47.742Z,8.6
2022-09-04T05:30:48.746Z,6.9
2022-09-04T05:35:49.585Z,10.1
2022-09-04T05:40:50.340Z,9.8
2022-09-04T05:45:51.154Z,6.9
2022-09-04T05:50:52.207Z,8.3
2022-09-04T05:55:52.883Z,9.3
2022-09-04T06:00:54.038Z,7.6
2022-09-04T06:05:54.694Z,5.4
2022-09-04T06:10:56.146Z,6.4
2022-09-04T06:15:56.415Z,7.7
2022-09-04T06:20:57.296Z,7.8
2022-09-04T06:25:58.063Z,4.7
2022-09-04T06:30:58.993Z,3.2
2022-09-04T06:35:59.886Z,5.1
2022-09-04T06:41:00.758Z,4.6
2022-09-04T06:46:02.320Z,2.8
2022-09-04T06:51:02.395Z,4.6
2022-09-04T06:56:03.140Z,4.3
2022-09-04T07:01:04.004Z,3.8
2022-09-04T07:06:05.083Z,2.7
2022-09-04T07:11:06.854Z,4.3
2022-09-04T07:16:06.572Z,3.4
2022-09-04T07:21:07.508Z,4.2
2022-09-04T07:26:08.245Z,4.5
2022-09-04T07:31:09.043Z,4.8
2022-09-04T07:36:09.938Z,4.3
2022-09-04T07:41:10.715Z,4.1
2022-09-04T07:46:11.621Z,3.3
2022-09-04T07:51:12.653Z,2.5
2022-09-04T07:56:13.180Z,2.4
2022-09-04T08:01:14.176Z,3.2
2022-09-04T08:06:15.074Z,4.7
2022-09-04T08:11:16.392Z,3.2
2022-09-04T08:16:16.591Z,4.3
2022-09-04T08:21:17.725Z,3.8
2022-09-04T08:26:18.666Z,2.4
2022-09-04T08:31:19.169Z,2.4
2022-09-04T08:36:20.168Z,2.3
2022-09-04T08:41:20.931Z,2.4
2022-09-04T08:46:23.162Z,3.1
2022-09-04T08:51:22.613Z,2.0
2022-09-04T08:56:24.721Z,3.2
2022-09-04T09:01:24.262Z,3.4
2022-09-04T09:06:25.271Z,3.0
2022-09-04T09:11:27.030Z,4.4
2022-09-04T09:16:26.899Z,4.4
2022-09-04T09:21:28.023Z,4.5
2022-09-04T09:26:28.554Z,4.9
2022-09-04T09:31:29.459Z,5.3
2022-09-04T09:36:30.361Z,6.2
2022-09-04T09:41:31.067Z,3.9
2022-09-04T09:46:32.226Z,4.8
2022-09-04T09:51:33.053Z,3.7
2022-09-04T09:56:33.826Z,5.4
2022-09-04T10:01:34.604Z,7.6
2022-09-04T10:06:35.512Z,10.6
2022-09-04T10:11:36.650Z,6.9
2022-09-04T10:16:37.104Z,8.3
2022-09-04T10:21:38.208Z,6.1
2022-09-04T10:26:38.906Z,7.2
2022-09-04T10:31:39.707Z,4.4
2022-09-04T10:36:40.684Z,5.2
2022-09-04T10:41:41.558Z,5.9
2022-09-04T10:46:42.349Z,7.5
2022-09-04T10:51:43.192Z,6.1
2022-09-04T10:56:44.140Z,5.4
2022-09-04T11:01:44.895Z,4.5
2022-09-04T11:06:46.861Z,4.9
2022-09-04T11:11:47.356Z,3.6
2022-09-04T11:16:47.646Z,3.4
2022-09-04T11:21:48.309Z,3.6
2022-09-04T11:26:49.067Z,2.7
2022-09-04T11:31:50.007Z,2.6
2022-09-04T11:36:50.902Z,3.5
2022-09-04T11:41:52.018Z,3.9
2022-09-04T11:46:52.695Z,2.2
2022-09-04T11:51:53.396Z,3.4
2022-09-04T11:56:54.068Z,3.8
2022-09-04T12:01:55.046Z,2.2
2022-09-04T12:06:55.975Z,1.8
2022-09-04T12:11:57.142Z,4.1
2022-09-04T12:16:57.530Z,2.0
2022-09-04T12:21:58.480Z,3.5
2022-09-04T12:26:59.957Z,2.4
2022-09-04T12:32:00.078Z,2.3
2022-09-04T12:37:00.876Z,2.2
2022-09-04T12:42:01.717Z,2.4
2022-09-04T12:47:02.660Z,2.5
2022-09-04T12:52:03.342Z,3.1
2022-09-04T12:57:04.094Z,1.8
2022-09-04T13:02:05.221Z,2.7
2022-09-04T13:07:07.046Z,4.0
2022-09-04T13:12:07.079Z,5.8
2022-09-04T13:17:07.448Z,7.0
2022-09-04T13:22:08.215Z,4.1
2022-09-04T13:27:09.074Z,4.5
2022-09-04T13:32:10.205Z,5.3
2022-09-04T13:37:10.929Z,5.0
2022-09-04T13:42:11.450Z,4.6
2022-09-04T13:47:12.624Z,6.8
2022-09-04T13:52:13.055Z,6.0
2022-09-04T13:57:13.897Z,4.3
2022-09-04T14:02:14.662Z,5.7
2022-09-04T14:07:16.065Z,6.2
2022-09-04T14:12:16.678Z,6.1
2022-09-04T14:17:17.049Z,7.2
2022-09-04T14:22:18.072Z,4.4
2022-09-04T14:27:18.790Z,7.0
2022-09-04T14:32:19.683Z,7.1
2022-09-04T14:37:20.617Z,5.5
2022-09-04T14:42:21.308Z,6.0
2022-09-04T14:47:22.063Z,4.5
2022-09-04T14:52:23.318Z,4.8
2022-09-04T14:57:23.921Z,4.9
2022-09-04T15:02:24.606Z,4.5
2022-09-04T15:07:25.657Z,3.3
2022-09-04T15:12:26.712Z,5.4
2022-09-04T15:17:27.132Z,4.3
2022-09-04T15:22:28.559Z,3.4
2022-09-04T15:27:28.932Z,4.5
2022-09-04T15:32:29.930Z,3.7
2022-09-04T15:37:30.646Z,4.1
2022-09-04T15:42:31.497Z,3.4
2022-09-04T15:47:32.176Z,5.0
2022-09-04T15:52:33.423Z,3.7
2022-09-04T15:57:34.177Z,3.4
2022-09-04T16:02:34.953Z,3.2
2022-09-04T16:07:35.901Z,4.8
2022-09-04T16:12:36.961Z,3.9
2022-09-04T16:17:37.860Z,3.3
2022-09-04T16:22:38.418Z,5.3
2022-09-04T16:27:39.203Z,4.1
2022-09-04T16:32:40.043Z,4.1
2022-09-04T16:37:41.170Z,3.2
2022-09-04T16:42:42.405Z,4.6
2022-09-04T16:47:42.749Z,5.7
2022-09-04T16:52:43.868Z,7.1
2022-09-04T16:57:44.508Z,4.6
2022-09-04T17:02:45.545Z,5.1
2022-09-04T17:07:46.261Z,6.4
2022-09-04T17:12:48.651Z,5.6
2022-09-04T17:17:47.936Z,6.4
2022-09-04T17:29:03.412Z,6.2
2022-09-04T17:29:16.883Z,4.2
2022-09-04T17:36:23.596Z,4.9
2022-09-04T17:40:55.437Z,5.7
2022-09-04T17:43:17.676Z,5.1
2022-09-04T17:47:53.364Z,7.3
2022-09-04T17:52:54.784Z,6.1
2022-09-04T17:57:55.178Z,4.6
2022-09-04T18:02:56.618Z,5.1
2022-09-04T18:08:09.851Z,5.5
2022-09-04T18:12:58.726Z,5.1
2022-09-04T18:17:58.715Z,5.3
2022-09-04T18:22:59.849Z,4.7
2022-09-04T18:28:06.501Z,5.1
2022-09-04T18:37:08.388Z,6.1
2022-09-04T18:38:02.229Z,4.9
2022-09-04T18:49:55.475Z,4.8
2022-09-04T18:50:47.269Z,5.8
2022-09-04T18:53:05.009Z,4.9
2022-09-04T18:58:05.670Z,6.2
2022-09-04T19:03:06.503Z,4.9
2022-09-04T19:08:07.222Z,7.6
2022-09-04T19:13:08.617Z,4.6
2022-09-04T19:18:08.799Z,5.2
2022-09-04T19:23:15.605Z,6.9
2022-09-04T19:28:10.413Z,7.0
2022-09-04T19:33:11.226Z,8.4
2022-09-04T19:42:07.475Z,6.2
2022-09-04T19:46:25.787Z,6.9
2022-09-04T19:48:13.995Z,5.2
2022-09-04T19:53:29.745Z,7.3
2022-09-04T19:58:15.993Z,6.0
2022-09-04T20:03:23.710Z,7.5
2022-09-04T20:08:16.924Z,7.2
2022-09-04T20:13:18.398Z,5.7
2022-09-04T20:18:18.339Z,7.1
2022-09-04T20:23:34.423Z,7.2
2022-09-04T20:28:20.025Z,6.8
2022-09-04T20:33:20.884Z,6.5
2022-09-04T20:38:22.828Z,6.3
2022-09-04T20:43:22.481Z,7.4
2022-09-04T20:52:50.486Z,6.3
2022-09-04T20:53:24.424Z,8.3
2022-09-04T21:03:06.441Z,5.8
2022-09-04T21:03:38.003Z,6.9
2022-09-04T21:08:27.242Z,7.4
2022-09-04T21:13:27.220Z,7.1
2022-09-04T21:18:27.728Z,8.3
2022-09-04T21:23:28.695Z,8.8
2022-09-04T21:28:29.456Z,8.5
2022-09-04T21:33:33.432Z,8.4
2022-09-04T21:38:31.054Z,7.2
2022-09-04T21:43:35.532Z,7.7
2022-09-04T21:48:32.851Z,8.8
2022-09-04T21:53:33.313Z,5.8
2022-09-04T22:02:38.662Z,10.3
2022-09-04T22:03:34.953Z,7.7
2022-09-04T22:12:47.520Z,8.5
2022-09-04T22:18:37.053Z,7.9
2022-09-04T22:23:38.103Z,8.9
2022-09-04T22:28:38.714Z,8.1
2022-09-04T22:33:48.181Z,9.4
2022-09-04T22:38:40.283Z,7.3
2022-09-04T22:43:47.053Z,6.4
2022-09-04T22:48:41.824Z,8.7
2022-09-04T22:53:42.684Z,7.1
2022-09-04T22:58:43.116Z,6.0
2022-09-04T23:03:43.926Z,6.5
2022-09-04T23:13:53.602Z,8.0
2022-09-04T23:14:05.552Z,9.0
2022-09-04T23:20:02.000Z,11.1
2022-09-04T23:26:41.674Z,9.2
2022-09-04T23:28:51.826Z,9.6
2022-09-04T23:33:48.353Z,8.4
2022-09-04T23:38:49.144Z,9.1
2022-09-04T23:43:49.921Z,6.8
2022-09-04T23:48:50.963Z,7.7
2022-09-04T23:53:51.447Z,10.4
2022-09-04T23:58:52.376Z,10.1
